createdAt,value
2023-03-29T00:00:09.907Z,996.31
2023-03-29T00:01:09.890Z,996.24
2023-03-29T00:02:10.035Z,996.24
2023-03-29T00:03:09.980Z,996.21
2023-03-29T00:04:09.968Z,996.27
2023-03-29T00:05:09.881Z,996.16
2023-03-29T00:06:09.891Z,996.26
2023-03-29T00:07:09.896Z,996.20
2023-03-29T00:08:09.865Z,996.19
2023-03-29T00:09:10.037Z,996.19
2023-03-29T00:10:09.953Z,996.17
2023-03-29T00:11:09.952Z,996.15
2023-03-29T00:12:09.975Z,996.18
2023-03-29T00:13:10.595Z,996.13
2023-03-29T00:14:10.568Z,996.11
2023-03-29T00:15:09.960Z,996.12
2023-03-29T00:16:09.938Z,996.11
2023-03-29T00:17:09.890Z,996.08
2023-03-29T00:18:10.553Z,996.02
2023-03-29T00:19:09.977Z,996.00
2023-03-29T00:20:10.562Z,995.99
2023-03-29T00:21:09.892Z,995.96
2023-03-29T00:22:09.936Z,995.95
2023-03-29T00:23:09.888Z,995.97
2023-03-29T00:24:09.836Z,995.95
2023-03-29T00:25:09.790Z,996.00
2023-03-29T00:26:09.948Z,995.93
2023-03-29T00:27:09.862Z,995.87
2023-03-29T00:28:10.545Z,995.89
2023-03-29T00:29:09.794Z,995.92
2023-03-29T00:30:10.528Z,995.90
2023-03-29T00:31:09.949Z,995.93
2023-03-29T00:32:09.711Z,995.87
2023-03-29T00:33:09.943Z,995.85
2023-03-29T00:34:09.811Z,995.84
2023-03-29T00:35:09.665Z,995.86
2023-03-29T00:36:09.662Z,995.84
2023-03-29T00:37:09.835Z,995.82
2023-03-29T00:38:09.645Z,995.77
2023-03-29T00:39:09.672Z,995.76
2023-03-29T00:40:09.644Z,995.77
2023-03-29T00:41:09.640Z,995.71
2023-03-29T00:42:09.745Z,995.76
2023-03-29T00:43:09.616Z,995.71
2023-03-29T00:44:09.627Z,995.77
2023-03-29T00:45:09.628Z,995.69
2023-03-29T00:46:09.648Z,995.66
2023-03-29T00:47:09.609Z,995.73
2023-03-29T00:48:09.607Z,995.65
2023-03-29T00:49:09.631Z,995.65
2023-03-29T00:50:09.584Z,995.61
2023-03-29T00:51:10.540Z,995.59
2023-03-29T00:52:09.588Z,995.59
2023-03-29T00:53:09.557Z,995.56
2023-03-29T00:54:09.534Z,995.51
2023-03-29T00:55:09.531Z,995.54
2023-03-29T00:56:09.517Z,995.58
2023-03-29T00:57:09.585Z,995.55
2023-03-29T00:58:09.496Z,995.53
2023-03-29T00:59:09.531Z,995.55
2023-03-29T01:00:09.499Z,995.63
2023-03-29T01:01:09.482Z,995.53
2023-03-29T01:02:09.561Z,995.53
2023-03-29T01:03:09.510Z,995.51
2023-03-29T01:04:09.515Z,995.51
2023-03-29T01:05:09.473Z,995.52
2023-03-29T01:06:09.456Z,995.48
2023-03-29T01:07:09.533Z,995.51
2023-03-29T01:08:09.457Z,995.47
2023-03-29T01:09:09.438Z,995.43
2023-03-29T01:10:09.414Z,995.45
2023-03-29T01:11:09.409Z,995.41
2023-03-29T01:12:09.419Z,995.44
2023-03-29T01:13:09.457Z,995.34
2023-03-29T01:14:09.409Z,995.41
2023-03-29T01:15:09.388Z,995.40
2023-03-29T01:16:09.449Z,995.39
2023-03-29T01:17:09.382Z,995.43
2023-03-29T01:18:09.428Z,995.38
2023-03-29T01:19:09.388Z,995.25
2023-03-29T01:20:09.752Z,995.27
2023-03-29T01:21:09.360Z,995.35
2023-03-29T01:22:09.345Z,995.33
2023-03-29T01:23:09.358Z,995.39
2023-03-29T01:24:09.334Z,995.27
2023-03-29T01:25:09.336Z,995.28
2023-03-29T01:26:09.316Z,995.28
2023-03-29T01:27:09.337Z,995.20
2023-03-29T01:28:09.307Z,995.14
2023-03-29T01:29:09.314Z,995.14
2023-03-29T01:30:09.286Z,995.13
2023-03-29T01:31:09.276Z,995.11
2023-03-29T01:32:09.371Z,995.07
2023-03-29T01:33:09.273Z,995.09
2023-03-29T01:34:09.268Z,995.00
2023-03-29T01:35:09.254Z,995.05
2023-03-29T01:36:09.297Z,994.99
2023-03-29T01:37:09.275Z,995.02
2023-03-29T01:38:09.225Z,994.97
2023-03-29T01:39:09.247Z,995.00
2023-03-29T01:40:09.219Z,994.89
2023-03-29T01:41:09.203Z,994.90
2023-03-29T01:42:09.235Z,994.92
2023-03-29T01:43:09.190Z,994.90
2023-03-29T01:44:09.190Z,994.87
2023-03-29T01:45:09.187Z,994.88
2023-03-29T01:46:09.282Z,994.95
2023-03-29T01:47:09.200Z,994.91
2023-03-29T01:48:09.167Z,994.90
2023-03-29T01:49:09.171Z,994.92
2023-03-29T01:50:09.165Z,994.99
2023-03-29T01:51:09.147Z,994.93
2023-03-29T01:52:09.173Z,994.93
2023-03-29T01:53:09.138Z,994.89
2023-03-29T01:54:09.124Z,994.91
2023-03-29T01:55:09.123Z,994.88
2023-03-29T01:56:09.118Z,994.84
2023-03-29T01:57:09.129Z,994.84
2023-03-29T01:58:09.127Z,994.89
2023-03-29T01:59:09.093Z,994.84
2023-03-29T02:00:09.126Z,994.84
2023-03-29T02:01:09.116Z,994.88
2023-03-29T02:02:09.086Z,994.80
2023-03-29T02:03:09.221Z,994.78
2023-03-29T02:04:09.083Z,994.74
2023-03-29T02:05:09.062Z,994.75
2023-03-29T02:06:09.049Z,994.71
2023-03-29T02:07:09.050Z,994.76
2023-03-29T02:08:09.088Z,994.69
2023-03-29T02:09:09.039Z,994.64
2023-03-29T02:10:09.016Z,994.78
2023-03-29T02:11:09.030Z,994.74
2023-03-29T02:12:09.004Z,994.70
2023-03-29T02:13:09.036Z,994.64
2023-03-29T02:14:09.005Z,994.71
2023-03-29T02:15:09.001Z,994.60
2023-03-29T02:16:09.007Z,994.57
2023-03-29T02:17:08.975Z,994.58
2023-03-29T02:18:09.056Z,994.56
2023-03-29T02:19:08.965Z,994.55
2023-03-29T02:20:08.954Z,994.55
2023-03-29T02:21:08.942Z,994.53
2023-03-29T02:22:08.938Z,994.48
2023-03-29T02:23:08.983Z,994.53
2023-03-29T02:24:08.920Z,994.49
2023-03-29T02:25:08.938Z,994.51
2023-03-29T02:26:08.934Z,994.49
2023-03-29T02:27:08.914Z,994.48
2023-03-29T02:28:08.918Z,994.48
2023-03-29T02:29:08.894Z,994.48
2023-03-29T02:30:08.892Z,994.47
2023-03-29T02:31:08.921Z,994.48
2023-03-29T02:32:08.884Z,994.41
2023-03-29T02:33:08.986Z,994.41
2023-03-29T02:34:08.919Z,994.43
2023-03-29T02:35:09.004Z,994.38
2023-03-29T02:36:08.932Z,994.41
2023-03-29T02:37:08.829Z,994.44
2023-03-29T02:38:08.857Z,994.41
2023-03-29T02:39:08.875Z,994.42
2023-03-29T02:40:08.889Z,994.41
2023-03-29T02:41:08.859Z,994.41
2023-03-29T02:42:09.428Z,994.37
2023-03-29T02:43:10.541Z,994.39
2023-03-29T02:44:08.823Z,994.34
2023-03-29T02:45:08.815Z,994.35
2023-03-29T02:46:08.826Z,994.30
2023-03-29T02:47:08.893Z,994.31
2023-03-29T02:48:08.874Z,994.32
2023-03-29T02:49:09.437Z,994.23
2023-03-29T02:50:08.778Z,994.23
2023-03-29T02:51:08.813Z,994.20
2023-03-29T02:52:08.860Z,994.13
2023-03-29T02:53:08.978Z,994.17
2023-03-29T02:54:08.837Z,994.13
2023-03-29T02:55:09.432Z,994.13
2023-03-29T02:56:08.741Z,994.12
2023-03-29T02:57:08.951Z,994.05
2023-03-29T02:58:08.790Z,994.14
2023-03-29T02:59:08.773Z,994.16
2023-03-29T03:00:08.816Z,994.12
2023-03-29T03:01:08.799Z,994.11
2023-03-29T03:02:08.808Z,994.10
2023-03-29T03:03:08.911Z,994.10
2023-03-29T03:04:08.784Z,994.09
2023-03-29T03:05:08.732Z,994.02
2023-03-29T03:06:08.900Z,994.05
2023-03-29T03:07:08.781Z,993.97
2023-03-29T03:08:08.792Z,994.01
2023-03-29T03:09:08.622Z,993.97
2023-03-29T03:10:08.615Z,994.00
2023-03-29T03:11:08.610Z,993.91
2023-03-29T03:12:08.628Z,993.96
2023-03-29T03:13:08.603Z,993.96
2023-03-29T03:14:08.597Z,993.94
2023-03-29T03:15:08.789Z,993.96
2023-03-29T03:16:08.707Z,993.91
2023-03-29T03:17:08.593Z,993.95
2023-03-29T03:18:08.604Z,993.92
2023-03-29T03:19:08.541Z,993.93
2023-03-29T03:20:08.680Z,993.93
2023-03-29T03:21:08.598Z,994.01
2023-03-29T03:22:09.571Z,993.97
2023-03-29T03:23:08.659Z,993.97
2023-03-29T03:24:08.512Z,994.05
2023-03-29T03:25:08.515Z,993.97
2023-03-29T03:26:08.523Z,994.04
2023-03-29T03:27:08.512Z,993.98
2023-03-29T03:28:08.516Z,994.09
2023-03-29T03:29:08.518Z,993.98
2023-03-29T03:30:08.464Z,994.03
2023-03-29T03:31:08.468Z,993.94
2023-03-29T03:32:08.522Z,993.89
2023-03-29T03:33:08.470Z,993.86
2023-03-29T03:34:08.476Z,993.83
2023-03-29T03:35:08.469Z,993.85
2023-03-29T03:36:08.452Z,993.82
2023-03-29T03:37:08.419Z,993.81
2023-03-29T03:38:08.435Z,993.85
2023-03-29T03:39:08.423Z,993.79
2023-03-29T03:40:08.424Z,993.81
2023-03-29T03:41:08.399Z,993.82
2023-03-29T03:42:08.622Z,993.80
2023-03-29T03:43:08.399Z,993.80
2023-03-29T03:44:08.374Z,993.80
2023-03-29T03:45:08.366Z,993.80
2023-03-29T03:46:08.395Z,993.86
2023-03-29T03:47:08.384Z,993.94
2023-03-29T03:48:08.398Z,993.90
2023-03-29T03:49:08.355Z,993.96
2023-03-29T03:50:08.335Z,993.96
2023-03-29T03:51:08.316Z,993.94
2023-03-29T03:52:08.358Z,993.89
2023-03-29T03:53:08.349Z,993.80
2023-03-29T03:54:08.315Z,993.83
2023-03-29T03:55:08.300Z,993.80
2023-03-29T03:56:08.284Z,993.75
2023-03-29T03:57:08.333Z,993.74
2023-03-29T03:58:08.564Z,993.75
2023-03-29T03:59:08.268Z,993.77
2023-03-29T04:00:08.279Z,993.79
2023-03-29T04:01:08.261Z,993.79
2023-03-29T04:02:08.276Z,993.79
2023-03-29T04:03:08.452Z,993.78
2023-03-29T04:04:08.315Z,993.75
2023-03-29T04:05:08.262Z,993.75
2023-03-29T04:06:08.214Z,993.71
2023-03-29T04:07:08.223Z,993.76
2023-03-29T04:08:08.212Z,993.82
2023-03-29T04:09:08.191Z,993.86
2023-03-29T04:10:08.212Z,993.78
2023-03-29T04:11:08.250Z,993.81
2023-03-29T04:12:08.185Z,993.83
2023-03-29T04:13:08.200Z,993.80
2023-03-29T04:14:08.300Z,993.85
2023-03-29T04:15:08.174Z,993.82
2023-03-29T04:16:08.197Z,993.74
2023-03-29T04:17:08.141Z,993.80
2023-03-29T04:18:09.116Z,993.74
2023-03-29T04:19:08.149Z,993.74
2023-03-29T04:20:08.129Z,993.77
2023-03-29T04:21:08.135Z,993.78
2023-03-29T04:22:08.110Z,993.82
2023-03-29T04:23:08.120Z,993.75
2023-03-29T04:24:08.122Z,993.69
2023-03-29T04:25:08.112Z,993.66
2023-03-29T04:26:08.162Z,993.71
2023-03-29T04:27:08.084Z,993.80
2023-03-29T04:28:08.121Z,993.73
2023-03-29T04:29:08.097Z,993.71
2023-03-29T04:30:08.103Z,993.69
2023-03-29T04:31:08.150Z,993.71
2023-03-29T04:32:08.050Z,993.67
2023-03-29T04:33:08.089Z,993.63
2023-03-29T04:34:08.043Z,993.64
2023-03-29T04:35:08.095Z,993.64
2023-03-29T04:36:08.058Z,993.59
2023-03-29T04:37:08.009Z,993.64
2023-03-29T04:38:08.052Z,993.65
2023-03-29T04:39:07.994Z,993.59
2023-03-29T04:40:08.014Z,993.55
2023-03-29T04:41:07.990Z,993.53
2023-03-29T04:42:07.991Z,993.53
2023-03-29T04:43:08.020Z,993.48
2023-03-29T04:44:07.976Z,993.46
2023-03-29T04:45:08.041Z,993.50
2023-03-29T04:46:09.057Z,993.48
2023-03-29T04:47:07.952Z,993.46
2023-03-29T04:48:08.010Z,993.40
2023-03-29T04:49:07.934Z,993.39
2023-03-29T04:50:07.921Z,993.42
2023-03-29T04:51:07.915Z,993.41
2023-03-29T04:52:08.142Z,993.46
2023-03-29T04:53:07.921Z,993.38
2023-03-29T04:54:07.894Z,993.34
2023-03-29T04:55:07.931Z,993.37
2023-03-29T04:56:07.892Z,993.38
2023-03-29T04:57:07.915Z,993.37
2023-03-29T04:58:07.866Z,993.36
2023-03-29T04:59:07.882Z,993.36
2023-03-29T05:00:07.840Z,993.35
2023-03-29T05:01:08.928Z,993.31
2023-03-29T05:02:07.944Z,993.30
2023-03-29T05:03:07.900Z,993.29
2023-03-29T05:04:08.248Z,993.22
2023-03-29T05:05:07.833Z,993.19
2023-03-29T05:06:07.819Z,993.24
2023-03-29T05:07:07.818Z,993.18
2023-03-29T05:08:07.796Z,993.18
2023-03-29T05:09:07.985Z,993.23
2023-03-29T05:10:07.802Z,993.23
2023-03-29T05:11:07.801Z,993.19
2023-03-29T05:12:07.766Z,993.21
2023-03-29T05:13:07.765Z,993.20
2023-03-29T05:14:07.769Z,993.19
2023-03-29T05:15:07.766Z,993.17
2023-03-29T05:16:07.833Z,993.15
2023-03-29T05:17:07.783Z,993.18
2023-03-29T05:18:07.808Z,993.17
2023-03-29T05:19:07.720Z,993.19
2023-03-29T05:20:07.709Z,993.16
2023-03-29T05:21:07.726Z,993.16
2023-03-29T05:22:07.738Z,993.22
2023-03-29T05:23:07.690Z,993.19
2023-03-29T05:24:07.714Z,993.17
2023-03-29T05:25:07.694Z,993.12
2023-03-29T05:26:07.680Z,993.15
2023-03-29T05:27:07.684Z,993.14
2023-03-29T05:28:07.684Z,993.13
2023-03-29T05:29:07.677Z,993.09
2023-03-29T05:30:08.505Z,993.13
2023-03-29T05:31:07.730Z,993.12
2023-03-29T05:32:07.762Z,993.10
2023-03-29T05:33:07.757Z,993.20
2023-03-29T05:34:07.633Z,993.13
2023-03-29T05:35:07.650Z,993.11
2023-03-29T05:36:07.642Z,993.06
2023-03-29T05:37:07.595Z,993.04
2023-03-29T05:38:07.597Z,993.11
2023-03-29T05:39:07.603Z,993.07
2023-03-29T05:40:07.570Z,993.02
2023-03-29T05:41:07.567Z,993.02
2023-03-29T05:42:07.598Z,992.98
2023-03-29T05:43:07.561Z,992.96
2023-03-29T05:44:07.565Z,992.96
2023-03-29T05:45:07.554Z,992.92
2023-03-29T05:46:07.606Z,992.88
2023-03-29T05:47:07.531Z,992.81
2023-03-29T05:48:07.572Z,992.83
2023-03-29T05:49:07.523Z,992.90
2023-03-29T05:50:07.509Z,992.88
2023-03-29T05:51:07.504Z,992.88
2023-03-29T05:52:07.519Z,992.91
2023-03-29T05:53:07.489Z,992.93
2023-03-29T05:54:07.526Z,992.87
2023-03-29T05:55:07.467Z,992.91
2023-03-29T05:56:07.476Z,992.88
2023-03-29T05:57:07.502Z,992.91
2023-03-29T05:58:07.451Z,992.88
2023-03-29T05:59:07.440Z,992.99
2023-03-29T06:00:07.437Z,992.96
2023-03-29T06:01:07.421Z,992.94
2023-03-29T06:02:07.471Z,992.85
2023-03-29T06:03:17.977Z,992.84
2023-03-29T06:04:09.502Z,992.88
2023-03-29T06:05:07.484Z,992.81
2023-03-29T06:06:07.408Z,992.79
2023-03-29T06:07:07.380Z,992.82
2023-03-29T06:08:07.393Z,992.72
2023-03-29T06:09:07.390Z,992.82
2023-03-29T06:10:07.378Z,992.78
2023-03-29T06:11:07.588Z,992.74
2023-03-29T06:12:07.342Z,992.69
2023-03-29T06:13:07.343Z,992.72
2023-03-29T06:14:07.353Z,992.78
2023-03-29T06:15:07.325Z,992.79
2023-03-29T06:16:07.318Z,992.88
2023-03-29T06:17:07.368Z,992.83
2023-03-29T06:18:07.380Z,992.84
2023-03-29T06:19:07.313Z,992.83
2023-03-29T06:20:07.311Z,992.83
2023-03-29T06:21:07.599Z,992.88
2023-03-29T06:22:07.285Z,992.91
2023-03-29T06:23:07.274Z,992.89
2023-03-29T06:24:07.274Z,992.95
2023-03-29T06:25:07.258Z,992.97
2023-03-29T06:26:07.247Z,992.98
2023-03-29T06:27:07.243Z,993.02
2023-03-29T06:28:07.235Z,992.99
2023-03-29T06:29:07.232Z,993.05
2023-03-29T06:30:07.218Z,993.00
2023-03-29T06:31:07.351Z,992.99
2023-03-29T06:32:07.193Z,993.01
2023-03-29T06:33:07.224Z,993.07
2023-03-29T06:34:07.211Z,992.98
2023-03-29T06:35:07.176Z,993.02
2023-03-29T06:36:07.221Z,993.03
2023-03-29T06:37:07.159Z,992.98
2023-03-29T06:38:07.201Z,992.95
2023-03-29T06:39:07.431Z,993.01
2023-03-29T06:40:07.148Z,992.99
2023-03-29T06:41:07.145Z,993.09
2023-03-29T06:42:19.964Z,993.02
2023-03-29T06:43:09.135Z,993.08
2023-03-29T06:44:07.155Z,993.07
2023-03-29T06:45:07.117Z,993.09
2023-03-29T06:46:07.127Z,993.10
2023-03-29T06:47:07.094Z,993.10
2023-03-29T06:48:07.149Z,993.14
2023-03-29T06:49:07.116Z,993.13
2023-03-29T06:50:07.068Z,993.11
2023-03-29T06:51:07.144Z,993.12
2023-03-29T06:52:07.052Z,993.09
2023-03-29T06:53:08.072Z,993.15
2023-03-29T06:54:07.075Z,993.11
2023-03-29T06:55:07.044Z,993.17
2023-03-29T06:56:07.046Z,993.15
2023-03-29T06:57:07.078Z,993.09
2023-03-29T06:58:07.020Z,993.14
2023-03-29T06:59:07.035Z,993.18
2023-03-29T07:00:07.006Z,993.20
2023-03-29T07:01:07.208Z,993.23
2023-03-29T07:02:07.020Z,993.21
2023-03-29T07:03:07.235Z,993.26
2023-03-29T07:04:07.035Z,993.21
2023-03-29T07:05:06.959Z,993.20
2023-03-29T07:06:06.963Z,993.14
2023-03-29T07:07:06.957Z,993.16
2023-03-29T07:08:06.957Z,993.20
2023-03-29T07:09:06.970Z,993.22
2023-03-29T07:10:06.929Z,993.22
2023-03-29T07:11:07.947Z,993.19
2023-03-29T07:12:06.937Z,993.23
2023-03-29T07:13:06.907Z,993.21
2023-03-29T07:14:06.998Z,993.25
2023-03-29T07:15:06.910Z,993.25
2023-03-29T07:16:06.930Z,993.22
2023-03-29T07:17:06.903Z,993.25
2023-03-29T07:18:06.902Z,993.27
2023-03-29T07:19:06.889Z,993.19
2023-03-29T07:20:06.879Z,993.24
2023-03-29T07:21:06.868Z,993.27
2023-03-29T07:22:07.098Z,993.31
2023-03-29T07:23:06.891Z,993.25
2023-03-29T07:24:06.864Z,993.31
2023-03-29T07:25:06.817Z,993.26
2023-03-29T07:26:06.829Z,993.23
2023-03-29T07:27:06.812Z,993.21
2023-03-29T07:28:06.810Z,993.20
2023-03-29T07:29:06.815Z,993.14
2023-03-29T07:30:07.483Z,993.14
2023-03-29T07:31:06.837Z,993.11
2023-03-29T07:32:06.773Z,993.05
2023-03-29T07:33:06.855Z,993.11
2023-03-29T07:34:06.773Z,993.08
2023-03-29T07:35:06.755Z,993.09
2023-03-29T07:36:06.795Z,993.15
2023-03-29T07:37:06.741Z,993.20
2023-03-29T07:38:06.734Z,993.10
2023-03-29T07:39:06.745Z,993.16
2023-03-29T07:40:06.705Z,993.17
2023-03-29T07:41:06.733Z,993.16
2023-03-29T07:42:06.720Z,993.14
2023-03-29T07:43:06.693Z,993.14
2023-03-29T07:44:06.705Z,993.17
2023-03-29T07:45:06.688Z,993.15
2023-03-29T07:46:06.772Z,993.18
2023-03-29T07:47:06.659Z,993.18
2023-03-29T07:48:06.718Z,993.20
2023-03-29T07:49:06.700Z,993.18
2023-03-29T07:50:06.636Z,993.16
2023-03-29T07:51:06.629Z,993.17
2023-03-29T07:52:06.655Z,993.15
2023-03-29T07:53:06.620Z,993.21
2023-03-29T07:54:06.632Z,993.21
2023-03-29T07:55:06.626Z,993.27
2023-03-29T07:56:06.596Z,993.27
2023-03-29T07:57:06.636Z,993.25
2023-03-29T07:58:06.594Z,993.28
2023-03-29T07:59:06.651Z,993.28
2023-03-29T08:00:06.558Z,993.32
2023-03-29T08:01:07.098Z,993.35
2023-03-29T08:02:06.555Z,993.29
2023-03-29T08:03:06.643Z,993.33
2023-03-29T08:04:06.589Z,993.24
2023-03-29T08:05:06.667Z,993.27
2023-03-29T08:06:06.539Z,993.27
2023-03-29T08:07:06.533Z,993.18
2023-03-29T08:08:06.525Z,993.16
2023-03-29T08:09:06.504Z,993.22
2023-03-29T08:10:06.514Z,993.25
2023-03-29T08:11:06.498Z,993.22
2023-03-29T08:12:06.490Z,993.17
2023-03-29T08:13:06.487Z,993.16
2023-03-29T08:14:06.501Z,993.16
2023-03-29T08:15:06.499Z,993.16
2023-03-29T08:16:06.493Z,993.18
2023-03-29T08:17:06.506Z,993.17
2023-03-29T08:18:06.461Z,993.18
2023-03-29T08:19:06.438Z,993.13
2023-03-29T08:20:06.451Z,993.20
2023-03-29T08:21:06.436Z,993.21
2023-03-29T08:22:06.436Z,993.18
2023-03-29T08:23:06.431Z,993.23
2023-03-29T08:24:06.399Z,993.25
2023-03-29T08:25:06.409Z,993.25
2023-03-29T08:26:06.392Z,993.29
2023-03-29T08:27:06.394Z,993.26
2023-03-29T08:28:06.376Z,993.22
2023-03-29T08:29:06.365Z,993.24
2023-03-29T08:30:06.393Z,993.20
2023-03-29T08:31:06.406Z,993.16
2023-03-29T08:32:06.358Z,993.17
2023-03-29T08:33:06.396Z,993.15
2023-03-29T08:34:06.336Z,993.17
2023-03-29T08:35:06.485Z,993.14
2023-03-29T08:36:06.371Z,993.08
2023-03-29T08:37:06.316Z,993.06
2023-03-29T08:38:06.319Z,993.12
2023-03-29T08:39:06.316Z,993.14
2023-03-29T08:40:06.401Z,993.19
2023-03-29T08:41:06.298Z,993.20
2023-03-29T08:42:06.290Z,993.16
2023-03-29T08:43:06.302Z,993.18
2023-03-29T08:44:06.260Z,993.24
2023-03-29T08:45:06.271Z,993.20
2023-03-29T08:46:06.280Z,993.23
2023-03-29T08:47:06.251Z,993.27
2023-03-29T08:48:06.271Z,993.31
2023-03-29T08:49:06.226Z,993.40
2023-03-29T08:50:06.246Z,993.32
2023-03-29T08:51:07.971Z,993.34
2023-03-29T08:52:07.205Z,993.33
2023-03-29T08:53:06.212Z,993.32
2023-03-29T08:54:06.203Z,993.26
2023-03-29T08:55:06.201Z,993.34
2023-03-29T08:56:06.190Z,993.36
2023-03-29T08:57:06.196Z,993.31
2023-03-29T08:58:06.186Z,993.30
2023-03-29T08:59:06.177Z,993.23
2023-03-29T09:00:06.184Z,993.31
2023-03-29T09:01:06.231Z,993.31
2023-03-29T09:02:06.245Z,993.33
2023-03-29T09:03:06.207Z,993.30
2023-03-29T09:04:06.189Z,993.36
2023-03-29T09:05:06.147Z,993.25
2023-03-29T09:06:06.110Z,993.24
2023-03-29T09:07:06.109Z,993.31
2023-03-29T09:08:06.086Z,993.28
2023-03-29T09:09:06.095Z,993.26
2023-03-29T09:10:06.138Z,993.32
2023-03-29T09:11:06.114Z,993.18
2023-03-29T09:12:06.092Z,993.19
2023-03-29T09:13:06.136Z,993.26
2023-03-29T09:14:06.059Z,993.17
2023-03-29T09:15:06.064Z,993.20
2023-03-29T09:16:06.164Z,993.16
2023-03-29T09:17:06.024Z,993.20
2023-03-29T09:18:06.034Z,993.19
2023-03-29T09:19:06.044Z,993.14
2023-03-29T09:20:06.010Z,993.08
2023-03-29T09:21:05.995Z,993.06
2023-03-29T09:22:06.008Z,993.02
2023-03-29T09:23:05.994Z,992.96
2023-03-29T09:24:06.009Z,993.07
2023-03-29T09:25:06.005Z,993.09
2023-03-29T09:26:05.972Z,993.13
2023-03-29T09:27:05.955Z,993.05
2023-03-29T09:28:05.958Z,992.99
2023-03-29T09:29:07.714Z,993.03
2023-03-29T09:30:05.974Z,993.08
2023-03-29T09:31:05.982Z,993.05
2023-03-29T09:32:05.952Z,993.00
2023-03-29T09:33:05.969Z,992.99
2023-03-29T09:34:05.909Z,993.06
2023-03-29T09:35:05.915Z,993.08
2023-03-29T09:36:05.935Z,993.02
2023-03-29T09:37:05.885Z,993.00
2023-03-29T09:38:05.895Z,993.10
2023-03-29T09:39:05.906Z,993.00
2023-03-29T09:40:05.887Z,993.05
2023-03-29T09:41:06.068Z,993.04
2023-03-29T09:42:05.880Z,993.07
2023-03-29T09:43:05.835Z,993.15
2023-03-29T09:44:05.833Z,993.11
2023-03-29T09:45:05.867Z,993.04
2023-03-29T09:46:05.862Z,993.11
2023-03-29T09:47:05.822Z,993.02
2023-03-29T09:48:05.858Z,993.01
2023-03-29T09:49:05.802Z,993.00
2023-03-29T09:50:07.351Z,993.02
2023-03-29T09:51:05.806Z,992.97
2023-03-29T09:52:05.805Z,992.95
2023-03-29T09:53:05.775Z,992.90
2023-03-29T09:54:05.762Z,992.88
2023-03-29T09:55:05.769Z,992.92
2023-03-29T09:56:05.774Z,992.83
2023-03-29T09:57:05.763Z,992.82
2023-03-29T09:58:05.744Z,992.77
2023-03-29T09:59:05.733Z,992.82
2023-03-29T10:00:05.764Z,992.75
2023-03-29T10:01:05.980Z,992.73
2023-03-29T10:02:05.722Z,992.72
2023-03-29T10:03:06.574Z,992.65
2023-03-29T10:04:05.766Z,992.78
2023-03-29T10:05:05.687Z,992.76
2023-03-29T10:06:05.703Z,992.71
2023-03-29T10:07:05.697Z,992.73
2023-03-29T10:08:05.693Z,992.71
2023-03-29T10:09:05.657Z,992.71
2023-03-29T10:10:05.652Z,992.72
2023-03-29T10:11:05.691Z,992.62
2023-03-29T10:12:05.618Z,992.62
2023-03-29T10:13:05.624Z,992.58
2023-03-29T10:14:05.636Z,992.54
2023-03-29T10:15:05.871Z,992.53
2023-03-29T10:16:05.673Z,992.58
2023-03-29T10:17:05.639Z,992.60
2023-03-29T10:18:05.653Z,992.53
2023-03-29T10:19:05.610Z,992.56
2023-03-29T10:20:06.435Z,992.56
2023-03-29T10:21:05.797Z,992.56
2023-03-29T10:22:05.571Z,992.64
2023-03-29T10:23:05.548Z,992.63
2023-03-29T10:24:05.546Z,992.58
2023-03-29T10:25:05.583Z,992.63
2023-03-29T10:26:05.576Z,992.54
2023-03-29T10:27:05.530Z,992.47
2023-03-29T10:28:05.547Z,992.61
2023-03-29T10:29:05.524Z,992.61
2023-03-29T10:30:05.510Z,992.56
2023-03-29T10:31:05.694Z,992.66
2023-03-29T10:32:05.577Z,992.60
2023-03-29T10:33:05.531Z,992.63
2023-03-29T10:34:05.518Z,992.70
2023-03-29T10:35:05.484Z,992.58
2023-03-29T10:36:05.545Z,992.67
2023-03-29T10:37:05.509Z,992.61
2023-03-29T10:38:05.453Z,992.64
2023-03-29T10:39:06.193Z,992.55
2023-03-29T10:40:05.462Z,992.56
2023-03-29T10:41:05.489Z,992.58
2023-03-29T10:42:05.436Z,992.59
2023-03-29T10:43:05.420Z,992.57
2023-03-29T10:44:05.427Z,992.58
2023-03-29T10:45:05.408Z,992.66
2023-03-29T10:46:06.457Z,992.60
2023-03-29T10:47:05.388Z,992.74
2023-03-29T10:48:05.451Z,992.61
2023-03-29T10:49:05.396Z,992.55
2023-03-29T10:50:05.407Z,992.59
2023-03-29T10:51:05.556Z,992.64
2023-03-29T10:52:05.357Z,992.62
2023-03-29T10:53:05.349Z,992.54
2023-03-29T10:54:05.336Z,992.49
2023-03-29T10:55:05.366Z,992.49
2023-03-29T10:56:05.340Z,992.60
2023-03-29T10:57:05.382Z,992.56
2023-03-29T10:58:05.310Z,992.63
2023-03-29T10:59:05.319Z,992.53
2023-03-29T11:00:05.297Z,992.60
2023-03-29T11:01:05.726Z,992.60
2023-03-29T11:02:05.326Z,992.56
2023-03-29T11:03:05.398Z,992.54
2023-03-29T11:04:05.347Z,992.56
2023-03-29T11:05:05.258Z,992.49
2023-03-29T11:06:05.274Z,992.46
2023-03-29T11:07:05.256Z,992.53
2023-03-29T11:08:05.246Z,992.50
2023-03-29T11:09:05.241Z,992.48
2023-03-29T11:10:05.255Z,992.54
2023-03-29T11:11:05.414Z,992.54
2023-03-29T11:12:15.453Z,992.54
2023-03-29T11:13:07.214Z,992.49
2023-03-29T11:14:05.200Z,992.50
2023-03-29T11:15:05.187Z,992.49
2023-03-29T11:16:05.226Z,992.53
2023-03-29T11:17:05.209Z,992.52
2023-03-29T11:18:05.209Z,992.42
2023-03-29T11:19:05.165Z,992.52
2023-03-29T11:20:05.429Z,992.44
2023-03-29T11:21:10.350Z,992.45
2023-03-29T11:22:06.142Z,992.54
2023-03-29T11:23:05.150Z,992.54
2023-03-29T11:24:05.141Z,992.54
2023-03-29T11:25:05.166Z,992.53
2023-03-29T11:26:05.130Z,992.48
2023-03-29T11:27:05.104Z,992.46
2023-03-29T11:28:05.096Z,992.43
2023-03-29T11:29:05.090Z,992.36
2023-03-29T11:30:05.100Z,992.45
2023-03-29T11:31:05.487Z,992.44
2023-03-29T11:32:05.208Z,992.49
2023-03-29T11:33:05.223Z,992.34
2023-03-29T11:34:05.087Z,992.41
2023-03-29T11:35:05.044Z,992.30
2023-03-29T11:36:05.120Z,992.36
2023-03-29T11:37:05.036Z,992.39
2023-03-29T11:38:05.021Z,992.37
2023-03-29T11:39:05.047Z,992.36
2023-03-29T11:40:05.002Z,992.37
2023-03-29T11:41:05.152Z,992.34
2023-03-29T11:42:04.999Z,992.32
2023-03-29T11:43:05.030Z,992.34
2023-03-29T11:44:04.978Z,992.33
2023-03-29T11:45:04.991Z,992.32
2023-03-29T11:46:05.021Z,992.26
2023-03-29T11:47:05.036Z,992.29
2023-03-29T11:48:04.975Z,992.27
2023-03-29T11:49:04.959Z,992.31
2023-03-29T11:50:04.986Z,992.33
2023-03-29T11:51:04.989Z,992.30
2023-03-29T11:52:04.921Z,992.24
2023-03-29T11:53:04.919Z,992.23
2023-03-29T11:54:04.916Z,992.21
2023-03-29T11:55:04.902Z,992.28
2023-03-29T11:56:04.911Z,992.26
2023-03-29T11:57:04.922Z,992.25
2023-03-29T11:58:04.897Z,992.18
2023-03-29T11:59:04.859Z,992.16
2023-03-29T12:00:05.894Z,992.11
2023-03-29T12:01:04.936Z,992.08
2023-03-29T12:02:04.880Z,992.00
2023-03-29T12:03:04.912Z,992.06
2023-03-29T12:04:04.930Z,992.12
2023-03-29T12:05:04.835Z,992.09
2023-03-29T12:06:04.831Z,992.03
2023-03-29T12:07:04.807Z,992.05
2023-03-29T12:08:04.802Z,992.04
2023-03-29T12:09:04.800Z,992.11
2023-03-29T12:10:04.798Z,992.03
2023-03-29T12:11:05.099Z,992.09
2023-03-29T12:12:04.772Z,992.01
2023-03-29T12:13:04.755Z,992.06
2023-03-29T12:14:04.744Z,992.02
2023-03-29T12:15:04.770Z,992.07
2023-03-29T12:16:04.806Z,992.02
2023-03-29T12:17:05.644Z,992.06
2023-03-29T12:18:04.758Z,991.91
2023-03-29T12:19:04.709Z,991.98
2023-03-29T12:20:04.699Z,991.96
2023-03-29T12:21:04.820Z,991.95
2023-03-29T12:22:04.694Z,991.96
2023-03-29T12:23:04.700Z,991.92
2023-03-29T12:24:04.680Z,991.91
2023-03-29T12:25:04.676Z,991.96
2023-03-29T12:26:04.695Z,991.94
2023-03-29T12:27:04.668Z,991.85
2023-03-29T12:28:04.640Z,991.90